Time;durP1;ratioP1;P1;durP2;ratioP2;P2;SDS_P1;SDS_P2;PMS_P1;PMS_P2;Temp;Humidity;BMP_temperature;BMP_pressure;BME280_temperature;BME280_humidity;BME280_pressure;Samples;Min_cycle;Max_cycle;Signal;HPM_P1;HPM_P2
2023/08/31 00:02:15;;;;;;;2.30;2.13;;;;;;;14.76;100.00;98681.53;5058636;28;20201;-79
2023/08/31 00:04:48;;;;;;;2.10;2.00;;;;;;;14.77;100.00;98681.28;5069096;28;20278;-79
2023/08/31 00:07:16;;;;;;;2.20;1.97;;;;;;;14.77;100.00;98683.97;5054655;28;20229;-79
2023/08/31 00:09:44;;;;;;;2.00;1.90;;;;;;;14.73;100.00;98685.59;5058151;28;20233;-79
2023/08/31 00:12:15;;;;;;;1.80;1.70;;;;;;;14.69;100.00;98686.41;5051306;28;20206;-79
2023/08/31 00:14:43;;;;;;;2.13;2.00;;;;;;;14.67;100.00;98685.84;5070038;28;20197;-79
2023/08/31 00:17:13;;;;;;;2.00;1.90;;;;;;;14.66;100.00;98682.34;5054168;28;20209;-81
2023/08/31 00:19:44;;;;;;;2.30;2.10;;;;;;;14.65;100.00;98690.72;5067684;28;20189;-78
2023/08/31 00:22:18;;;;;;;2.00;1.90;;;;;;;14.66;100.00;98689.63;5059702;28;20204;-79
2023/08/31 00:24:52;;;;;;;3.83;2.03;;;;;;;14.65;100.00;98693.41;5059976;28;20186;-79
2023/08/31 00:27:26;;;;;;;2.30;2.10;;;;;;;14.63;100.00;98690.97;5069722;28;20194;-79
2023/08/31 00:29:55;;;;;;;1.80;1.70;;;;;;;14.63;100.00;98685.59;5065998;28;20685;-79
2023/08/31 00:32:25;;;;;;;2.30;2.10;;;;;;;14.62;100.00;98697.44;5061089;28;20581;-79
2023/08/31 00:34:52;;;;;;;2.50;1.90;;;;;;;14.65;100.00;98701.50;5069619;28;20197;-79
2023/08/31 00:37:30;;;;;;;2.67;1.90;;;;;;;14.63;100.00;98703.66;5069414;28;20197;-79
2023/08/31 00:40:09;;;;;;;2.30;1.90;;;;;;;14.63;100.00;98707.16;5057483;28;20191;-78
2023/08/31 00:42:39;;;;;;;2.60;2.10;;;;;;;14.65;100.00;98704.97;5076375;28;20193;-79
2023/08/31 00:45:15;;;;;;;2.37;1.90;;;;;;;14.69;100.00;98706.09;5060819;28;20598;-78
2023/08/31 00:47:49;;;;;;;2.10;2.00;;;;;;;14.69;100.00;98706.09;5064554;28;20237;-78
2023/08/31 00:50:19;;;;;;;2.00;1.80;;;;;;;14.74;100.00;98705.28;5055671;28;20205;-79
2023/08/31 00:52:49;;;;;;;2.10;1.90;;;;;;;14.75;100.00;98705.00;5058218;28;20219;-79
2023/08/31 00:55:18;;;;;;;2.20;2.10;;;;;;;14.79;100.00;98710.69;5055511;28;20256;-79
2023/08/31 00:57:52;;;;;;;2.40;2.20;;;;;;;14.80;100.00;98706.88;5052794;28;20259;-79
2023/08/31 01:00:36;;;;;;;1.90;1.80;;;;;;;14.83;100.00;98711.75;5052794;28;20247;-78
2023/08/31 01:03:13;;;;;;;1.83;1.70;;;;;;;14.84;100.00;98716.06;5053623;28;20197;-79
2023/08/31 01:05:57;;;;;;;2.07;1.90;;;;;;;14.83;100.00;98723.38;5063207;28;20670;-80
2023/08/31 01:08:38;;;;;;;2.30;1.80;;;;;;;14.84;100.00;98716.88;5061943;28;20648;-79
2023/08/31 01:11:12;;;;;;;1.90;1.80;;;;;;;14.87;100.00;98710.97;5067664;28;20193;-79
2023/08/31 01:13:52;;;;;;;1.90;1.80;;;;;;;14.92;100.00;98719.06;5063055;28;20259;-79
2023/08/31 01:16:26;;;;;;;1.80;1.70;;;;;;;14.97;100.00;98727.16;5029794;28;20324;-80
2023/08/31 01:18:57;;;;;;;1.97;1.87;;;;;;;15.01;100.00;98719.31;5049121;28;20646;-79
2023/08/31 01:21:30;;;;;;;1.90;1.80;;;;;;;15.06;100.00;98726.59;5057619;28;20194;-80
2023/08/31 01:24:01;;;;;;;1.80;1.70;;;;;;;15.25;100.00;98720.38;5047635;28;20672;-78
2023/08/31 01:26:31;;;;;;;1.83;1.73;;;;;;;15.36;100.00;98718.47;5053700;28;20194;-78
2023/08/31 01:29:02;;;;;;;1.93;1.80;;;;;;;15.42;100.00;98728.19;5049505;28;20323;-79
2023/08/31 01:31:30;;;;;;;1.90;1.80;;;;;;;15.46;100.00;98726.53;5062938;28;20220;-79
2023/08/31 01:34:03;;;;;;;2.67;2.00;;;;;;;15.58;100.00;98723.59;5061567;28;20209;-78
2023/08/31 01:36:44;;;;;;;1.97;1.87;;;;;;;15.59;100.00;98727.88;5060406;28;20216;-80
2023/08/31 01:39:33;;;;;;;3.73;1.60;;;;;;;15.71;100.00;98733.81;5047577;28;20206;-78
2023/08/31 01:42:11;;;;;;;2.13;1.80;;;;;;;15.71;100.00;98731.94;5063605;28;20205;-80
2023/08/31 01:44:48;;;;;;;1.70;1.60;;;;;;;15.76;100.00;98739.22;5055029;28;20202;-78
2023/08/31 01:47:19;;;;;;;1.60;1.50;;;;;;;15.83;100.00;98731.59;5065900;28;20720;-79
2023/08/31 01:49:50;;;;;;;1.57;1.47;;;;;;;15.82;100.00;98728.09;5036711;28;20753;-79
2023/08/31 01:52:28;;;;;;;2.00;1.90;;;;;;;15.80;100.00;98722.19;5062992;28;20669;-79
2023/08/31 01:54:57;;;;;;;1.87;1.60;;;;;;;15.81;100.00;98731.09;5062589;28;20202;-79
2023/08/31 01:57:33;;;;;;;1.90;1.80;;;;;;;15.81;100.00;98725.69;5048338;28;20671;-82
2023/08/31 02:00:10;;;;;;;1.73;1.63;;;;;;;15.78;100.00;98731.63;5058655;28;20205;-79
2023/08/31 02:02:42;;;;;;;1.93;1.83;;;;;;;15.88;100.00;98742.41;5065362;28;20196;-79
2023/08/31 02:05:14;;;;;;;1.87;1.77;;;;;;;15.81;100.00;98734.59;5064559;28;20230;-79
2023/08/31 02:07:43;;;;;;;1.60;1.50;;;;;;;15.79;100.00;98730.53;5044262;28;20259;-80
2023/08/31 02:10:11;;;;;;;1.80;1.70;;;;;;;15.78;100.00;98747.81;5064774;28;20221;-79
2023/08/31 02:12:43;;;;;;;1.80;1.70;;;;;;;15.73;100.00;98748.66;5053743;28;20273;-79
2023/08/31 02:15:15;;;;;;;2.07;1.80;;;;;;;15.70;100.00;98745.69;5039641;28;20189;-79
2023/08/31 02:17:43;;;;;;;2.00;1.87;;;;;;;15.70;100.00;98748.41;5059060;28;20186;-79
2023/08/31 02:20:14;;;;;;;1.87;1.67;;;;;;;15.68;100.00;98745.16;5079494;28;20232;-79
2023/08/31 02:22:45;;;;;;;2.00;1.80;;;;;;;15.67;100.00;98746.25;5069166;28;20201;-79
2023/08/31 02:25:16;;;;;;;2.03;1.70;;;;;;;15.68;100.00;98750.53;5065406;28;20216;-78
2023/08/31 02:27:50;;;;;;;1.77;1.67;;;;;;;15.65;100.00;98748.41;5060977;28;20224;-80
2023/08/31 02:30:26;;;;;;;2.20;1.73;;;;;;;15.70;100.00;98745.69;5057959;28;20224;-79
2023/08/31 02:32:54;;;;;;;2.50;1.90;;;;;;;15.72;100.00;98749.72;5057403;28;20220;-79
2023/08/31 02:35:28;;;;;;;1.70;1.60;;;;;;;15.71;100.00;98750.03;5059974;28;20193;-81
2023/08/31 02:38:02;;;;;;;2.00;1.80;;;;;;;15.70;100.00;98753.78;5061350;28;20205;-79
2023/08/31 02:40:43;;;;;;;2.10;1.73;;;;;;;15.66;100.00;98750.03;5066260;28;20197;-80
2023/08/31 02:43:11;;;;;;;2.07;1.97;;;;;;;15.65;100.00;98759.22;5062607;28;20193;-79
2023/08/31 02:45:49;;;;;;;1.90;1.80;;;;;;;15.65;100.00;98753.81;5064667;28;20766;-79
2023/08/31 02:48:25;;;;;;;2.07;1.87;;;;;;;15.62;100.00;98749.78;5063869;28;20190;-79
2023/08/31 02:51:00;;;;;;;1.87;1.77;;;;;;;15.59;100.00;98752.19;5062761;28;20221;-79
2023/08/31 02:53:38;;;;;;;2.57;1.80;;;;;;;15.57;100.00;98752.47;5060980;28;20262;-79
2023/08/31 02:56:06;;;;;;;1.93;1.80;;;;;;;15.55;100.00;98757.34;5057002;28;20259;-80
2023/08/31 02:58:36;;;;;;;2.17;1.83;;;;;;;15.52;100.00;98759.78;5069921;28;20276;-80
2023/08/31 03:01:11;;;;;;;2.10;2.00;;;;;;;15.50;100.00;98770.00;5045426;28;20273;-80
2023/08/31 03:03:48;;;;;;;1.73;1.63;;;;;;;15.45;100.00;98760.00;5047198;28;20316;-81
2023/08/31 03:06:20;;;;;;;2.30;2.10;;;;;;;15.42;100.00;98766.78;5044032;28;20209;-82
2023/08/31 03:08:51;;;;;;;1.83;1.73;;;;;;;15.37;100.00;98769.47;5066256;28;20213;-79
2023/08/31 03:11:19;;;;;;;1.90;1.80;;;;;;;15.36;100.00;98773.25;5066147;28;20194;-79
2023/08/31 03:13:55;;;;;;;1.93;1.83;;;;;;;15.34;100.00;98775.44;5062800;28;20202;-79
2023/08/31 03:16:23;;;;;;;2.03;1.77;;;;;;;15.35;100.00;98771.63;5053084;28;20210;-80
2023/08/31 03:18:53;;;;;;;2.10;1.90;;;;;;;15.32;100.00;98769.47;5055578;28;20720;-80
2023/08/31 03:21:24;;;;;;;2.17;2.07;;;;;;;15.27;100.00;98776.75;5069015;28;20190;-82
2023/08/31 03:24:01;;;;;;;2.10;1.90;;;;;;;15.26;100.00;98775.13;5055163;28;20205;-79
2023/08/31 03:26:36;;;;;;;2.17;2.00;;;;;;;15.22;100.00;98777.56;5065923;28;20283;-83
2023/08/31 03:29:11;;;;;;;2.67;1.97;;;;;;;15.20;100.00;98777.06;5041600;28;20301;-79
2023/08/31 03:31:42;;;;;;;2.23;2.13;;;;;;;15.17;100.00;98777.56;5064129;28;20220;-81
2023/08/31 03:34:16;;;;;;;2.00;1.90;;;;;;;15.12;100.00;98782.16;5059969;28;20272;-79
2023/08/31 03:36:45;;;;;;;1.93;1.83;;;;;;;15.09;100.00;98782.69;5068478;28;20232;-79
2023/08/31 03:39:16;;;;;;;2.20;2.10;;;;;;;15.09;100.00;98782.69;5045669;28;20209;-80
2023/08/31 03:41:51;;;;;;;2.03;1.80;;;;;;;15.08;100.00;98781.06;5067031;28;20288;-79
2023/08/31 03:44:23;;;;;;;2.30;2.10;;;;;;;15.06;100.00;98777.84;5029801;28;20222;-79
2023/08/31 03:46:52;;;;;;;2.70;2.50;;;;;;;14.97;100.00;98783.78;5047306;28;20257;-79
2023/08/31 03:49:37;;;;;;;2.37;2.20;;;;;;;14.95;100.00;98783.22;5051092;28;20693;-79
2023/08/31 03:52:14;;;;;;;2.00;1.90;;;;;;;14.88;100.00;98784.59;5029478;28;20264;-79
2023/08/31 03:54:45;;;;;;;2.33;1.93;;;;;;;14.83;100.00;98788.09;5026729;28;20206;-79
2023/08/31 03:57:26;;;;;;;2.00;1.90;;;;;;;14.79;100.00;98789.66;5034091;28;20214;-78
2023/08/31 04:00:12;;;;;;;2.47;2.27;;;;;;;14.72;100.00;98788.31;5019045;28;20209;-78
2023/08/31 04:02:44;;;;;;;2.90;2.13;;;;;;;14.65;100.00;98793.16;5045091;28;20218;-78
2023/08/31 04:05:20;;;;;;;2.10;1.93;;;;;;;14.60;100.00;98798.53;5029636;28;20218;-78
2023/08/31 04:07:52;;;;;;;2.10;2.00;;;;;;;14.52;100.00;98791.75;5044560;28;20276;-80
2023/08/31 04:10:25;;;;;;;1.90;1.80;;;;;;;14.50;100.00;98793.94;5025245;28;20249;-79
2023/08/31 04:12:53;;;;;;;2.20;2.10;;;;;;;14.47;100.00;98802.53;5046238;28;20666;-79
2023/08/31 04:15:25;;;;;;;2.10;2.00;;;;;;;14.44;100.00;98797.69;5016966;28;20191;-79
2023/08/31 04:17:56;;;;;;;2.67;2.50;;;;;;;14.45;100.00;98799.31;5019908;28;20256;-79
2023/08/31 04:20:33;;;;;;;2.80;2.37;;;;;;;14.45;100.00;98799.31;5024803;28;20205;-79
2023/08/31 04:23:08;;;;;;;2.20;2.10;;;;;;;14.39;100.00;98803.03;5025675;28;20194;-79
2023/08/31 04:25:38;;;;;;;3.33;2.13;;;;;;;14.40;100.00;98801.97;5027193;28;20370;-79
2023/08/31 04:28:11;;;;;;;2.33;2.17;;;;;;;14.39;100.00;98801.16;5037843;28;20206;-81
2023/08/31 04:30:41;;;;;;;2.50;2.40;;;;;;;14.43;100.00;98801.44;5034002;28;20224;-82
2023/08/31 04:33:14;;;;;;;2.87;2.30;;;;;;;14.46;100.00;98806.31;5052410;28;20276;-79
2023/08/31 04:35:44;;;;;;;2.50;2.33;;;;;;;14.47;100.00;98802.53;5036713;28;20288;-78
2023/08/31 04:38:14;;;;;;;2.40;2.30;;;;;;;14.51;100.00;98812.50;5051223;28;20681;-78
2023/08/31 04:40:46;;;;;;;3.33;2.57;;;;;;;14.53;100.00;98815.75;5036776;28;20209;-82
2023/08/31 04:43:16;;;;;;;3.20;2.50;;;;;;;14.59;100.00;98810.41;5036252;28;20190;-81
2023/08/31 04:45:45;;;;;;;2.70;2.50;;;;;;;14.65;100.00;98818.22;5048432;28;20246;-81
2023/08/31 04:48:19;;;;;;;2.77;2.57;;;;;;;14.72;100.00;98818.78;5030151;28;20193;-80
2023/08/31 04:50:56;;;;;;;3.10;2.80;;;;;;;14.81;100.00;98822.59;5025313;28;20225;-81
2023/08/31 04:53:32;;;;;;;2.50;2.30;;;;;;;14.85;100.00;98822.84;5033986;28;20196;-81
2023/08/31 04:56:08;;;;;;;2.83;2.57;;;;;;;14.92;100.00;98820.72;5046960;28;20667;-81
2023/08/31 04:58:36;;;;;;;2.50;2.30;;;;;;;15.05;100.00;98827.47;5038858;28;20281;-80
2023/08/31 05:01:05;;;;;;;2.50;2.30;;;;;;;15.13;100.00;98825.06;5015928;28;20288;-80
2023/08/31 05:03:33;;;;;;;2.30;2.20;;;;;;;15.25;100.00;98831.03;5023314;28;20209;-82
2023/08/31 05:06:04;;;;;;;2.30;2.10;;;;;;;15.36;100.00;98835.31;5042621;28;20190;-81
2023/08/31 05:08:33;;;;;;;2.40;2.20;;;;;;;15.47;100.00;98838.84;5018877;28;20193;-82
2023/08/31 05:11:07;;;;;;;2.73;2.10;;;;;;;15.55;100.00;98842.91;5015595;28;20885;-82
2023/08/31 05:13:41;;;;;;;2.47;2.37;;;;;;;15.62;100.00;98838.88;5029336;28;20444;-82
2023/08/31 05:16:13;;;;;;;2.60;2.20;;;;;;;15.68;100.00;98845.88;5041887;28;20232;-81
2023/08/31 05:18:41;;;;;;;2.70;2.40;;;;;;;15.79;100.00;98841.28;5040246;28;20255;-82
2023/08/31 05:21:19;;;;;;;3.13;2.17;;;;;;;15.89;100.00;98840.44;5037859;28;20194;-81
2023/08/31 05:23:46;;;;;;;2.33;2.13;;;;;;;15.94;100.00;98845.84;5044683;28;20693;-80
2023/08/31 05:26:17;;;;;;;2.70;2.00;;;;;;;16.00;100.00;98842.06;5053330;28;20204;-82
2023/08/31 05:28:47;;;;;;;2.37;2.17;;;;;;;16.01;100.00;98847.16;5034684;28;20298;-81
2023/08/31 05:31:18;;;;;;;2.10;1.97;;;;;;;16.09;100.00;98849.34;5041313;28;20356;-80
2023/08/31 05:33:50;;;;;;;2.43;2.20;;;;;;;16.19;100.00;98849.28;5040796;28;20277;-82
2023/08/31 05:36:33;;;;;;;2.27;2.10;;;;;;;16.27;100.00;98848.75;5027507;28;20194;-80
2023/08/31 05:39:06;;;;;;;2.83;2.03;;;;;;;16.43;100.00;98860.28;5033398;28;20194;-81
2023/08/31 05:41:43;;;;;;;2.13;2.03;;;;;;;16.54;100.00;98848.38;5041579;28;20272;-82
2023/08/31 05:44:11;;;;;;;5.30;2.17;;;;;;;16.65;100.00;98851.88;5046264;28;20209;-80
2023/08/31 05:46:41;;;;;;;2.30;2.00;;;;;;;16.74;100.00;98852.91;5051611;28;20225;-81
2023/08/31 05:49:13;;;;;;;2.03;1.93;;;;;;;17.05;100.00;98854.34;5040851;28;20619;-81
2023/08/31 05:51:41;;;;;;;2.07;1.90;;;;;;;17.29;100.00;98861.78;5015608;28;20190;-81
2023/08/31 05:54:12;;;;;;;2.63;1.90;;;;;;;17.46;100.00;98863.00;5046112;28;20195;-81
2023/08/31 05:56:47;;;;;;;2.83;1.90;;;;;;;17.66;100.00;98864.75;5019352;28;20194;-81
2023/08/31 05:59:17;;;;;;;2.20;2.00;;;;;;;17.85;100.00;98871.09;5036519;28;20195;-81
2023/08/31 06:01:46;;;;;;;2.13;1.70;;;;;;;18.03;100.00;98873.09;5038592;28;20186;-81
2023/08/31 06:04:21;;;;;;;1.73;1.63;;;;;;;18.24;100.00;98876.41;5030034;28;20669;-81
2023/08/31 06:06:53;;;;;;;1.67;1.57;;;;;;;18.44;100.00;98868.03;5041746;28;20283;-80
2023/08/31 06:09:23;;;;;;;2.10;1.90;;;;;;;18.60;100.00;98871.41;5032734;28;20199;-82
2023/08/31 06:12:01;;;;;;;1.60;1.37;;;;;;;18.76;100.00;98872.00;5031645;28;20238;-80
2023/08/31 06:14:33;;;;;;;3.13;1.97;;;;;;;18.94;100.00;98878.59;5024445;28;20192;-81
2023/08/31 06:17:12;;;;;;;1.60;1.50;;;;;;;19.02;100.00;98861.63;5018919;28;20204;-80
2023/08/31 06:19:41;;;;;;;1.50;1.40;;;;;;;19.20;100.00;98874.41;5049241;28;20195;-84
2023/08/31 06:22:13;;;;;;;1.80;1.70;;;;;;;19.33;100.00;98869.03;5044974;28;20201;-80
2023/08/31 06:24:45;;;;;;;1.60;1.50;;;;;;;19.48;100.00;98873.47;5042673;28;20283;-81
2023/08/31 06:27:25;;;;;;;1.50;1.40;;;;;;;19.61;100.00;98875.41;5052907;28;20191;-81
2023/08/31 06:29:56;;;;;;;2.47;1.60;;;;;;;19.64;100.00;98882.19;5026329;28;20226;-81
2023/08/31 06:32:25;;;;;;;2.27;1.40;;;;;;;19.68;100.00;98884.00;5038854;28;20251;-80
2023/08/31 06:34:59;;;;;;;2.03;1.70;;;;;;;19.85;100.00;98885.34;5037591;28;20246;-80
2023/08/31 06:37:41;;;;;;;1.63;1.33;;;;;;;20.00;100.00;98895.97;5044836;28;20276;-81
2023/08/31 06:40:10;;;;;;;1.63;1.53;;;;;;;20.11;100.00;98891.97;5043585;28;20198;-81
2023/08/31 06:42:42;;;;;;;1.87;1.30;;;;;;;20.04;100.00;98886.91;5019939;28;20211;-81
2023/08/31 06:45:10;;;;;;;0.90;0.90;;;;;;;20.10;100.00;98896.59;5030892;28;20226;-81
2023/08/31 06:47:41;;;;;;;1.10;1.10;;;;;;;20.06;100.00;98900.22;5058191;28;20235;-81
2023/08/31 06:50:09;;;;;;;1.30;1.20;;;;;;;20.18;100.00;98901.34;5068202;28;20246;-81
2023/08/31 06:52:43;;;;;;;1.30;1.20;;;;;;;20.22;100.00;98902.34;5057401;28;20559;-81
2023/08/31 06:55:17;;;;;;;1.20;1.10;;;;;;;20.32;100.00;98895.97;5052906;28;20256;-81
2023/08/31 06:57:49;;;;;;;1.30;1.20;;;;;;;20.32;100.00;98906.84;5054563;28;20203;-83
2023/08/31 07:00:22;;;;;;;1.00;1.00;;;;;;;20.36;100.00;98899.69;5057644;28;20226;-80
2023/08/31 07:02:51;;;;;;;1.20;1.10;;;;;;;20.43;100.00;98908.28;5056306;28;20255;-82
2023/08/31 07:05:25;;;;;;;1.73;1.30;;;;;;;20.47;100.00;98903.03;5053617;28;20193;-81
2023/08/31 07:07:54;;;;;;;1.30;1.20;;;;;;;20.58;100.00;98910.66;5062083;28;20213;-80
2023/08/31 07:10:23;;;;;;;1.00;1.00;;;;;;;20.54;100.00;98906.94;5062176;28;20214;-82
2023/08/31 07:12:55;;;;;;;1.20;1.10;;;;;;;20.53;100.00;98905.31;5068706;28;20683;-81
2023/08/31 07:15:33;;;;;;;2.07;1.30;;;;;;;20.54;100.00;98909.66;5060266;28;20219;-81
2023/08/31 07:18:02;;;;;;;3.43;1.30;;;;;;;20.57;100.00;98917.25;5064243;28;20784;-81
2023/08/31 07:20:30;;;;;;;2.77;1.30;;;;;;;20.37;100.00;98914.91;5065014;28;20200;-81
2023/08/31 07:23:01;;;;;;;1.93;1.30;;;;;;;20.42;100.00;98917.53;5064894;28;20764;-81
2023/08/31 07:25:30;;;;;;;2.03;1.20;;;;;;;20.41;100.00;98921.34;5061390;28;20742;-81
2023/08/31 07:27:59;;;;;;;1.23;1.13;;;;;;;20.59;100.00;98922.38;5067778;28;20191;-81
2023/08/31 07:30:30;;;;;;;2.30;1.40;;;;;;;20.62;100.00;98924.50;5065086;28;20229;-82
2023/08/31 07:33:03;;;;;;;1.40;1.30;;;;;;;20.69;100.00;98924.09;5068638;28;20222;-81
2023/08/31 07:35:51;;;;;;;1.83;1.20;;;;;;;20.80;100.00;98937.22;5066210;28;20193;-81
2023/08/31 07:38:31;;;;;;;1.53;1.43;;;;;;;20.84;100.00;98934.69;5073662;28;20382;-80
2023/08/31 07:41:04;;;;;;;1.50;1.40;;;;;;;20.91;100.00;98935.06;5071010;28;20288;-82
2023/08/31 07:43:32;;;;;;;1.50;1.40;;;;;;;20.91;100.00;98944.03;5078726;28;20211;-81
2023/08/31 07:46:01;;;;;;;1.60;1.50;;;;;;;20.87;100.00;98943.03;5059754;28;20243;-80
2023/08/31 07:48:33;;;;;;;1.50;1.40;;;;;;;20.96;100.00;98946.66;5044145;28;20299;-81
2023/08/31 07:51:03;;;;;;;1.50;1.40;;;;;;;20.97;100.00;98945.56;5050430;28;20225;-81
2023/08/31 07:53:44;;;;;;;1.43;1.33;;;;;;;21.17;100.00;98940.81;5042604;28;20200;-80
2023/08/31 07:56:11;;;;;;;2.67;1.40;;;;;;;21.18;100.00;98939.72;5056002;28;20208;-80
2023/08/31 07:58:40;;;;;;;1.80;1.70;;;;;;;20.98;100.00;98955.34;5042514;28;20199;-82
2023/08/31 08:01:08;;;;;;;1.90;1.80;;;;;;;20.85;100.00;98955.34;5041099;28;20197;-82
2023/08/31 08:03:39;;;;;;;1.70;1.60;;;;;;;20.56;100.00;98951.00;5042387;28;20210;-82
2023/08/31 08:06:08;;;;;;;2.20;1.80;;;;;;;20.46;100.00;98955.81;5042370;28;20217;-81
2023/08/31 08:08:45;;;;;;;2.30;1.60;;;;;;;20.39;100.00;98963.59;5041680;28;20190;-84
2023/08/31 08:11:16;;;;;;;2.97;1.70;;;;;;;20.38;100.00;98972.84;5035006;28;20230;-82
2023/08/31 08:13:45;;;;;;;2.10;1.90;;;;;;;20.43;100.00;98970.03;5044822;28;20661;-80
2023/08/31 08:16:14;;;;;;;1.87;1.70;;;;;;;20.62;100.00;98971.56;5045910;28;20272;-80
2023/08/31 08:18:46;;;;;;;1.60;1.50;;;;;;;20.81;100.00;98974.19;5021082;28;20213;-81
2023/08/31 08:21:18;;;;;;;2.67;1.80;;;;;;;21.01;100.00;98957.44;5046998;28;20238;-80
2023/08/31 08:23:52;;;;;;;1.80;1.70;;;;;;;21.08;100.00;98973.41;5040769;28;20220;-80
2023/08/31 08:26:21;;;;;;;2.00;1.77;;;;;;;21.25;100.00;98989.13;5045651;28;20688;-81
2023/08/31 08:28:53;;;;;;;1.60;1.50;;;;;;;21.37;100.00;98987.50;5022363;28;20735;-81
2023/08/31 08:31:21;;;;;;;1.87;1.77;;;;;;;21.48;100.00;98994.34;5053495;28;20248;-82
2023/08/31 08:33:54;;;;;;;1.70;1.60;;;;;;;21.76;100.00;98988.81;5044191;28;20218;-80
2023/08/31 08:36:21;;;;;;;1.63;1.52;;;;;;;22.15;100.00;98983.53;5034258;28;20201;-81
2023/08/31 08:38:50;;;;;;;2.47;1.48;;;;;;;22.69;100.00;98982.38;5045705;28;20205;-84
2023/08/31 08:41:23;;;;;;;1.80;1.70;;;;;;;22.91;99.57;98991.69;5037766;28;20221;-81
2023/08/31 08:44:05;;;;;;;1.73;1.63;;;;;;;23.38;97.24;98981.81;5024915;28;20244;-80
2023/08/31 08:46:36;;;;;;;1.40;1.30;;;;;;;23.26;95.94;98991.47;5047046;28;20245;-80
2023/08/31 08:49:05;;;;;;;3.38;1.70;;;;;;;23.61;94.67;98992.34;5078992;28;20734;-81
2023/08/31 08:51:35;;;;;;;2.08;1.40;;;;;;;23.61;94.36;98986.06;5056615;28;20213;-81
2023/08/31 08:54:06;;;;;;;1.50;1.40;;;;;;;23.64;95.90;98988.97;5071119;28;20197;-81
2023/08/31 08:56:39;;;;;;;2.08;1.73;;;;;;;23.63;94.96;99000.22;5067260;28;20215;-80
2023/08/31 08:59:06;;;;;;;1.50;1.40;;;;;;;23.36;94.12;98998.56;5061611;28;20193;-79
2023/08/31 09:01:39;;;;;;;2.63;1.42;;;;;;;23.27;93.96;99004.00;5059692;28;20194;-80
2023/08/31 09:04:13;;;;;;;1.63;1.40;;;;;;;23.18;93.61;99016.03;5065333;28;20188;-80
2023/08/31 09:06:41;;;;;;;1.40;1.30;;;;;;;23.28;94.44;99018.47;5067121;28;20251;-80
2023/08/31 09:09:16;;;;;;;1.48;1.38;;;;;;;23.05;93.61;99015.00;5070594;28;20201;-80
2023/08/31 09:11:48;;;;;;;1.50;1.40;;;;;;;23.39;93.42;99024.44;5071465;28;20235;-81
2023/08/31 09:14:20;;;;;;;1.98;1.40;;;;;;;23.52;90.36;99021.59;5067372;28;20229;-80
2023/08/31 09:16:52;;;;;;;1.45;1.30;;;;;;;23.31;91.44;99026.03;5049865;28;20663;-80
2023/08/31 09:19:30;;;;;;;1.60;1.50;;;;;;;23.68;90.94;99021.94;5066728;28;20254;-80
2023/08/31 09:22:06;;;;;;;1.45;1.35;;;;;;;23.72;91.65;99031.13;5064428;28;20209;-79
2023/08/31 09:24:48;;;;;;;1.40;1.30;;;;;;;23.74;86.73;99028.88;5078823;28;20200;-79
2023/08/31 09:27:17;;;;;;;1.30;1.20;;;;;;;23.79;86.15;99022.44;5070327;28;20250;-80
2023/08/31 09:29:55;;;;;;;1.30;1.10;;;;;;;24.03;85.32;99026.31;5069683;28;20192;-80
2023/08/31 09:32:25;;;;;;;1.80;1.35;;;;;;;23.91;84.74;99025.34;5065016;28;20214;-80
2023/08/31 09:35:08;;;;;;;1.60;1.25;;;;;;;23.76;82.69;99023.06;5071605;28;20262;-80
2023/08/31 09:37:59;;;;;;;1.30;1.20;;;;;;;23.66;82.63;99024.19;5055304;28;20243;-82
2023/08/31 09:40:30;;;;;;;1.60;1.20;;;;;;;23.92;81.69;99030.50;5063271;28;20204;-80
2023/08/31 09:42:58;;;;;;;1.35;1.25;;;;;;;24.04;81.26;99025.19;5065209;28;20740;-80
2023/08/31 09:45:34;;;;;;;2.15;1.30;;;;;;;23.97;81.63;99030.34;5067616;28;20268;-80
2023/08/31 09:48:05;;;;;;;1.30;1.20;;;;;;;24.14;79.69;99029.53;5022186;28;20239;-83
2023/08/31 09:50:38;;;;;;;1.15;1.13;;;;;;;24.26;79.35;99046.16;5043460;28;20232;-80
2023/08/31 09:53:12;;;;;;;1.10;1.10;;;;;;;24.39;77.36;99036.13;5030112;28;20200;-80
2023/08/31 09:55:42;;;;;;;2.25;1.10;;;;;;;24.92;78.67;99035.69;5031592;28;20288;-80
2023/08/31 09:58:17;;;;;;;1.17;1.08;;;;;;;25.28;76.89;99036.03;5048724;28;20197;-80
2023/08/31 10:00:50;;;;;;;1.70;1.20;;;;;;;25.41;72.84;99035.00;5029510;28;20201;-81
2023/08/31 10:03:20;;;;;;;1.13;1.02;;;;;;;25.52;74.58;99038.16;5042047;28;20189;-80
2023/08/31 10:05:56;;;;;;;1.10;1.00;;;;;;;25.67;72.93;99036.78;5009785;28;20202;-79
2023/08/31 10:08:28;;;;;;;1.20;1.10;;;;;;;25.66;72.66;99040.69;5038221;28;20602;-82
2023/08/31 10:11:03;;;;;;;1.17;1.08;;;;;;;25.56;71.79;99038.31;5039257;28;20220;-82
2023/08/31 10:13:36;;;;;;;1.27;1.10;;;;;;;25.63;72.30;99038.59;5025312;28;20206;-80
2023/08/31 10:16:09;;;;;;;1.00;0.90;;;;;;;25.68;72.54;99041.94;5055310;28;20199;-80
2023/08/31 10:18:39;;;;;;;1.17;1.13;;;;;;;25.66;71.53;99040.69;5045558;28;20216;-80
2023/08/31 10:21:18;;;;;;;1.95;1.15;;;;;;;25.59;72.21;99043.13;5032113;28;20209;-81
2023/08/31 10:23:49;;;;;;;1.20;1.10;;;;;;;25.36;72.39;99039.84;5045144;28;20204;-80
2023/08/31 10:26:27;;;;;;;1.23;1.10;;;;;;;25.28;70.85;99046.19;5033594;28;20221;-80
2023/08/31 10:29:02;;;;;;;1.50;1.00;;;;;;;24.92;70.74;99050.19;5028245;28;20194;-84
2023/08/31 10:31:35;;;;;;;0.90;0.90;;;;;;;24.57;68.36;99045.94;5028955;28;20243;-83
2023/08/31 10:34:03;;;;;;;1.20;1.10;;;;;;;24.48;68.93;99048.69;5051606;28;20269;-80
2023/08/31 10:36:40;;;;;;;0.93;0.90;;;;;;;24.43;67.39;99046.13;5028864;28;20202;-82
2023/08/31 10:39:15;;;;;;;0.95;0.90;;;;;;;24.73;67.41;99043.47;5048141;28;20193;-82
2023/08/31 10:41:54;;;;;;;1.00;0.90;;;;;;;24.70;65.33;99042.19;5032068;28;20204;-87
2023/08/31 10:44:32;;;;;;;1.20;1.10;;;;;;;24.71;67.48;99048.47;5048685;28;20193;-79
2023/08/31 10:47:03;;;;;;;1.30;1.02;;;;;;;24.55;68.52;99059.94;5050300;28;20232;-80
2023/08/31 10:49:37;;;;;;;0.95;0.85;;;;;;;24.45;67.08;99062.22;5068775;28;20224;-80
2023/08/31 10:52:19;;;;;;;1.38;1.10;;;;;;;24.40;67.24;99070.59;5064259;28;20220;-80
2023/08/31 10:55:09;;;;;;;1.10;0.95;;;;;;;23.90;66.97;99065.56;5065731;28;20242;-80
2023/08/31 10:57:40;;;;;;;1.52;0.88;;;;;;;23.68;68.66;99055.56;5064167;28;20189;-81
2023/08/31 11:00:08;;;;;;;0.80;0.80;;;;;;;23.49;68.30;99057.78;5062805;28;20215;-80
2023/08/31 11:02:38;;;;;;;0.70;0.70;;;;;;;23.40;68.93;99064.31;5060181;28;20198;-82
2023/08/31 11:05:09;;;;;;;1.10;0.98;;;;;;;23.86;68.83;99064.59;5068927;28;20667;-81
2023/08/31 11:07:47;;;;;;;1.00;0.93;;;;;;;24.24;69.83;99064.81;5074027;28;20216;-82
2023/08/31 11:10:23;;;;;;;1.00;0.90;;;;;;;24.45;69.27;99057.53;5051916;28;20201;-80
2023/08/31 11:13:07;;;;;;;0.98;0.90;;;;;;;24.31;70.30;99070.59;5067569;28;20193;-80
2023/08/31 11:15:40;;;;;;;0.93;0.93;;;;;;;23.99;69.33;99069.13;5053788;28;20255;-80
2023/08/31 11:18:17;;;;;;;1.00;1.00;;;;;;;24.05;69.90;99067.84;5070734;28;20649;-80
2023/08/31 11:20:55;;;;;;;1.00;0.95;;;;;;;24.25;70.27;99062.88;5066871;28;20207;-81
2023/08/31 11:23:37;;;;;;;2.05;1.00;;;;;;;24.20;71.02;99069.31;5070320;28;20199;-81
2023/08/31 11:26:06;;;;;;;1.30;1.00;;;;;;;24.36;70.86;99072.34;5072671;28;20193;-82
2023/08/31 11:28:36;;;;;;;1.00;1.00;;;;;;;24.49;70.32;99068.66;5071215;28;20221;-83
2023/08/31 11:31:05;;;;;;;1.35;0.98;;;;;;;24.59;69.68;99067.53;5070339;28;20216;-84
2023/08/31 11:33:37;;;;;;;1.20;0.95;;;;;;;24.69;66.69;99059.75;5064408;28;20221;-81
2023/08/31 11:36:17;;;;;;;1.00;0.93;;;;;;;24.72;69.28;99070.06;5061988;28;20196;-80
2023/08/31 11:38:45;;;;;;;0.80;0.80;;;;;;;24.95;66.79;99055.03;5058489;28;20255;-80
2023/08/31 11:41:14;;;;;;;1.15;1.05;;;;;;;24.94;66.47;99060.84;5066158;28;20200;-80
2023/08/31 11:43:45;;;;;;;0.82;0.82;;;;;;;24.63;67.74;99058.31;5066326;28;20216;-80
2023/08/31 11:46:15;;;;;;;1.60;1.10;;;;;;;24.64;67.24;99064.56;5061733;28;20285;-80
2023/08/31 11:48:44;;;;;;;1.23;0.77;;;;;;;24.87;66.68;99058.59;5061616;28;20197;-81
2023/08/31 11:51:22;;;;;;;1.27;1.17;;;;;;;24.80;65.90;99051.97;5072026;28;20220;-80
2023/08/31 11:54:05;;;;;;;1.38;0.95;;;;;;;24.66;65.65;99065.88;5057561;28;20248;-81